createdAt,value
2019-02-14T00:01:54.126Z,0.87
2019-02-14T00:06:01.766Z,0.87
2019-02-14T00:10:09.667Z,0.90
2019-02-14T00:14:18.208Z,0.91
2019-02-14T00:18:25.902Z,0.89
2019-02-14T00:22:34.037Z,0.86
2019-02-14T00:26:42.144Z,0.88
2019-02-14T00:30:49.955Z,0.85
2019-02-14T00:34:58.264Z,0.83
2019-02-14T00:39:07.216Z,0.81
2019-02-14T00:43:16.552Z,0.85
2019-02-14T00:47:24.707Z,0.83
2019-02-14T00:51:33.596Z,0.76
2019-02-14T00:55:41.322Z,0.71
2019-02-14T00:59:49.527Z,0.64
2019-02-14T01:03:57.661Z,0.66
2019-02-14T01:08:05.363Z,0.63
2019-02-14T01:12:14.189Z,0.62
2019-02-14T01:16:22.705Z,0.61
2019-02-14T01:20:30.415Z,0.66
2019-02-14T01:24:38.951Z,0.61
2019-02-14T01:28:46.755Z,0.59
2019-02-14T01:32:54.470Z,0.61
2019-02-14T01:37:02.384Z,0.63
2019-02-14T01:41:11.213Z,0.62
2019-02-14T01:45:19.352Z,0.61
2019-02-14T01:49:27.868Z,0.55
2019-02-14T01:53:35.566Z,0.56
2019-02-14T01:57:44.455Z,0.54
2019-02-14T02:01:52.307Z,0.50
2019-02-14T02:06:00.014Z,0.53
2019-02-14T02:10:08.883Z,0.49
2019-02-14T02:14:17.587Z,0.51
2019-02-14T02:18:25.483Z,0.47
2019-02-14T02:22:33.318Z,0.52
2019-02-14T02:26:41.374Z,0.50
2019-02-14T02:30:49.236Z,0.50
2019-02-14T02:34:57.549Z,0.46
2019-02-14T02:39:07.223Z,0.46
2019-02-14T02:43:14.903Z,0.46
2019-02-14T02:47:23.859Z,0.42
2019-02-14T02:51:31.770Z,0.34
2019-02-14T02:55:39.308Z,0.32
2019-02-14T02:59:47.408Z,0.23
2019-02-14T03:03:55.108Z,0.24
2019-02-14T03:08:02.941Z,0.14
2019-02-14T03:12:11.111Z,0.05
2019-02-14T03:16:18.812Z,0.00
2019-02-14T03:20:27.055Z,0.07
2019-02-14T03:24:35.189Z,-0.02
2019-02-14T03:28:42.873Z,-0.15
2019-02-14T03:32:51.304Z,-0.28
2019-02-14T03:36:59.629Z,-0.17
2019-02-14T03:41:07.437Z,-0.22
2019-02-14T03:45:16.813Z,-0.15
2019-02-14T03:49:24.632Z,-0.19
2019-02-14T03:53:32.412Z,-0.48
2019-02-14T03:57:40.329Z,-0.60
2019-02-14T04:01:48.538Z,-0.51
2019-02-14T04:05:56.447Z,-0.55
2019-02-14T04:10:05.814Z,-0.61
2019-02-14T04:14:13.386Z,-0.57
2019-02-14T04:18:21.032Z,-0.69
2019-02-14T04:22:29.132Z,-0.38
2019-02-14T04:26:36.770Z,-0.62
2019-02-14T04:30:44.880Z,-0.55
2019-02-14T04:34:53.150Z,-0.46
2019-02-14T04:39:00.976Z,-0.52
2019-02-14T04:43:10.519Z,-0.54
2019-02-14T04:47:18.825Z,-0.59
2019-02-14T04:51:26.574Z,-0.59
2019-02-14T04:55:34.784Z,-0.57
2019-02-14T04:59:42.710Z,-0.56
2019-02-14T05:03:50.595Z,-0.52
2019-02-14T05:07:58.513Z,-0.62
2019-02-14T05:12:06.283Z,-0.62
2019-02-14T05:16:14.024Z,-0.62
2019-02-14T05:20:22.138Z,-0.58
2019-02-14T05:24:30.062Z,-0.47
2019-02-14T05:28:37.855Z,-0.46
2019-02-14T05:32:45.846Z,-0.41
2019-02-14T05:36:55.309Z,-0.35
2019-02-14T05:41:03.145Z,-0.22
2019-02-14T05:45:11.578Z,-0.08
2019-02-14T05:49:19.270Z,0.10
2019-02-14T05:53:26.828Z,0.25
2019-02-14T05:57:34.999Z,0.39
2019-02-14T06:01:42.500Z,0.64
2019-02-14T06:05:51.331Z,0.91
2019-02-14T06:09:59.370Z,1.02
2019-02-14T06:14:06.960Z,1.07
2019-02-14T06:18:14.776Z,1.09
2019-02-14T06:22:24.068Z,1.16
2019-02-14T06:26:31.810Z,1.31
2019-02-14T06:30:39.726Z,1.43
2019-02-14T06:34:47.532Z,1.60
2019-02-14T06:38:55.142Z,1.74
2019-02-14T06:43:03.455Z,2.04
2019-02-14T06:47:11.276Z,2.48
2019-02-14T06:51:18.894Z,3.23
2019-02-14T06:55:26.627Z,3.67
2019-02-14T06:59:36.139Z,3.89
2019-02-14T07:03:43.940Z,3.54
2019-02-14T07:07:52.958Z,3.13
2019-02-14T07:12:01.314Z,2.98
2019-02-14T07:16:09.684Z,2.91
2019-02-14T07:20:17.647Z,3.01
2019-02-14T07:24:25.351Z,2.84
2019-02-14T07:28:34.453Z,3.07
2019-02-14T07:32:43.238Z,3.14
2019-02-14T07:36:51.239Z,3.10
2019-02-14T07:40:59.758Z,3.21
2019-02-14T07:45:11.163Z,3.22
2019-02-14T07:49:19.881Z,3.25
2019-02-14T07:53:27.594Z,3.52
2019-02-14T07:57:35.544Z,3.53
2019-02-14T08:01:43.203Z,3.58
2019-02-14T08:05:51.062Z,3.76
2019-02-14T08:09:59.188Z,3.94
2019-02-14T08:14:07.890Z,4.13
2019-02-14T08:18:15.611Z,4.31
2019-02-14T08:22:23.387Z,4.49
2019-02-14T08:26:31.307Z,4.64
2019-02-14T08:30:39.016Z,4.73
2019-02-14T08:34:46.937Z,4.78
2019-02-14T08:38:55.129Z,4.78
2019-02-14T08:43:02.932Z,4.87
2019-02-14T08:47:10.666Z,4.93
2019-02-14T08:51:18.627Z,5.27
2019-02-14T08:55:26.378Z,5.36
2019-02-14T08:59:34.292Z,5.47
2019-02-14T09:03:42.403Z,5.65
2019-02-14T09:07:54.594Z,5.66
2019-02-14T09:12:00.565Z,5.69
2019-02-14T09:16:08.293Z,5.83
2019-02-14T09:20:16.530Z,5.88
2019-02-14T09:24:24.125Z,6.06
2019-02-14T09:28:31.832Z,6.37
2019-02-14T09:32:40.135Z,6.53
2019-02-14T09:36:47.778Z,6.37
2019-02-14T09:40:56.893Z,6.29
2019-02-14T09:45:05.651Z,6.22
2019-02-14T09:49:13.348Z,6.00
2019-02-14T09:53:21.158Z,5.79
2019-02-14T09:57:29.311Z,5.79
2019-02-14T10:01:37.065Z,5.77
2019-02-14T10:05:44.995Z,5.71
2019-02-14T10:09:53.212Z,5.83
2019-02-14T10:14:00.929Z,5.75
2019-02-14T10:18:08.628Z,5.82
2019-02-14T10:22:16.742Z,5.94
2019-02-14T10:26:24.439Z,6.11
2019-02-14T10:30:32.577Z,6.25
2019-02-14T10:34:40.295Z,6.36
2019-02-14T10:38:47.969Z,6.25
2019-02-14T10:42:55.806Z,6.19
2019-02-14T10:47:03.597Z,6.10
2019-02-14T10:51:11.915Z,6.17
2019-02-14T10:55:19.959Z,6.09
2019-02-14T10:59:27.475Z,6.15
2019-02-14T11:03:35.442Z,6.18
2019-02-14T11:07:43.664Z,6.21
2019-02-14T11:11:52.395Z,6.09
2019-02-14T11:16:00.215Z,6.10
2019-02-14T11:20:09.269Z,6.13
2019-02-14T11:24:16.867Z,6.25
2019-02-14T11:28:24.680Z,6.14
2019-02-14T11:32:32.496Z,6.19
2019-02-14T11:36:40.180Z,6.26
2019-02-14T11:40:48.318Z,6.25
2019-02-14T11:44:55.910Z,6.25
2019-02-14T11:49:03.509Z,6.28
2019-02-14T11:53:14.154Z,6.28
2019-02-14T11:57:22.680Z,6.29
2019-02-14T12:01:30.625Z,6.25
2019-02-14T12:05:38.645Z,6.37
2019-02-14T12:09:46.364Z,6.31
2019-02-14T12:13:54.718Z,6.15
2019-02-14T12:18:02.889Z,6.17
2019-02-14T12:22:10.501Z,6.33
2019-02-14T12:26:18.416Z,6.41
2019-02-14T12:30:26.743Z,6.24
2019-02-14T12:34:34.363Z,6.02
2019-02-14T12:38:42.268Z,6.13
2019-02-14T12:42:49.970Z,6.09
2019-02-14T12:46:57.667Z,6.04
2019-02-14T12:51:05.472Z,6.01
2019-02-14T12:55:13.170Z,5.85
2019-02-14T12:59:21.716Z,5.79
2019-02-14T13:03:29.936Z,5.66
2019-02-14T13:07:37.642Z,5.68
2019-02-14T13:11:45.469Z,5.53
2019-02-14T13:15:53.869Z,5.45
2019-02-14T13:20:01.289Z,5.49
2019-02-14T13:24:09.398Z,5.37
2019-02-14T13:28:17.296Z,5.27
2019-02-14T13:32:26.046Z,5.18
2019-02-14T13:36:34.251Z,5.25
2019-02-14T13:40:41.890Z,5.18
2019-02-14T13:44:49.714Z,5.28
2019-02-14T13:48:58.316Z,5.23
2019-02-14T13:53:06.010Z,5.23
2019-02-14T13:57:14.069Z,5.06
2019-02-14T14:01:22.757Z,4.85
2019-02-14T14:05:30.532Z,4.72
2019-02-14T14:09:39.070Z,4.62
2019-02-14T14:13:46.914Z,4.47
2019-02-14T14:17:54.720Z,4.43
2019-02-14T14:22:02.684Z,4.25
2019-02-14T14:26:10.837Z,4.09
2019-02-14T14:30:18.579Z,3.89
2019-02-14T14:34:26.697Z,3.69
2019-02-14T14:38:34.578Z,3.53
2019-02-14T14:43:04.072Z,3.54
2019-02-14T14:47:20.540Z,3.50
2019-02-14T14:51:30.013Z,3.43
2019-02-14T14:55:37.769Z,3.34
2019-02-14T14:59:45.697Z,3.32
2019-02-14T15:03:53.482Z,3.21
2019-02-14T15:08:01.828Z,3.14
2019-02-14T15:12:09.613Z,3.11
2019-02-14T15:16:17.425Z,3.08
2019-02-14T15:20:25.169Z,3.07
2019-02-14T15:24:33.067Z,3.03
2019-02-14T15:28:40.784Z,3.08
2019-02-14T15:32:48.668Z,3.06
2019-02-14T15:36:56.622Z,3.06
2019-02-14T15:41:05.308Z,3.08
2019-02-14T15:45:13.677Z,3.18
2019-02-14T15:49:23.060Z,3.17
2019-02-14T15:53:31.955Z,3.21
2019-02-14T15:57:42.246Z,3.22
2019-02-14T16:01:50.136Z,3.28
2019-02-14T16:05:57.950Z,3.27
2019-02-14T16:10:06.024Z,3.41
2019-02-14T16:14:13.732Z,3.41
2019-02-14T16:18:23.208Z,3.40
2019-02-14T16:22:31.997Z,3.44
2019-02-14T16:26:39.734Z,3.46
2019-02-14T16:30:47.711Z,3.44
2019-02-14T16:34:55.760Z,3.40
2019-02-14T16:39:05.042Z,3.38
2019-02-14T16:43:13.237Z,3.46
2019-02-14T16:47:21.536Z,3.47
2019-02-14T16:51:29.252Z,3.54
2019-02-14T16:55:37.386Z,3.56
2019-02-14T16:59:45.589Z,3.63
2019-02-14T17:03:53.187Z,3.63
2019-02-14T17:08:01.615Z,3.49
2019-02-14T17:12:09.937Z,3.61
2019-02-14T17:16:18.568Z,3.48
2019-02-14T17:20:26.831Z,3.65
2019-02-14T17:24:34.403Z,3.65
2019-02-14T17:28:42.725Z,3.69
2019-02-14T17:32:51.081Z,3.60
2019-02-14T17:36:58.846Z,3.51
2019-02-14T17:41:06.733Z,3.64
2019-02-14T17:45:15.082Z,3.76
2019-02-14T17:49:22.888Z,3.88
2019-02-14T17:53:30.817Z,3.78
2019-02-14T17:57:39.839Z,3.93
2019-02-14T18:01:47.544Z,3.95
2019-02-14T18:05:55.487Z,3.84
2019-02-14T18:10:03.887Z,3.88
2019-02-14T18:14:11.491Z,3.93
2019-02-14T18:18:19.422Z,3.92
2019-02-14T18:22:27.073Z,3.91
2019-02-14T18:26:36.674Z,3.69
2019-02-14T18:30:44.562Z,3.81
2019-02-14T18:34:52.308Z,3.94
2019-02-14T18:39:00.507Z,4.08
2019-02-14T18:43:09.821Z,4.15
2019-02-14T18:47:17.761Z,4.10
2019-02-14T18:51:25.367Z,3.93
2019-02-14T18:55:34.098Z,4.08
2019-02-14T18:59:42.122Z,4.17
2019-02-14T19:03:49.814Z,4.16
2019-02-14T19:07:58.500Z,4.16
2019-02-14T19:12:06.532Z,4.14
2019-02-14T19:16:14.781Z,4.17
2019-02-14T19:20:22.710Z,4.07
2019-02-14T19:24:30.457Z,4.03
2019-02-14T19:28:38.428Z,4.06
2019-02-14T19:32:46.231Z,4.09
2019-02-14T19:36:55.085Z,4.07
2019-02-14T19:41:03.504Z,4.04
2019-02-14T19:45:11.284Z,3.98
2019-02-14T19:49:19.440Z,3.98
2019-02-14T19:53:27.489Z,3.97
2019-02-14T19:57:35.161Z,3.96
2019-02-14T20:01:43.870Z,4.02
2019-02-14T20:05:53.318Z,3.90
2019-02-14T20:10:00.940Z,3.91
2019-02-14T20:14:08.831Z,4.07
2019-02-14T20:18:16.546Z,3.92
2019-02-14T20:22:25.424Z,4.12
2019-02-14T20:26:33.472Z,4.01
2019-02-14T20:30:42.729Z,3.95
2019-02-14T20:34:51.157Z,4.06
2019-02-14T20:38:58.971Z,3.87
2019-02-14T20:43:06.801Z,3.85
2019-02-14T20:47:14.688Z,3.77
2019-02-14T20:51:22.393Z,3.85
2019-02-14T20:55:30.718Z,3.90
2019-02-14T20:59:39.047Z,3.93
2019-02-14T21:03:47.071Z,3.99
2019-02-14T21:07:55.275Z,3.79
2019-02-14T21:12:03.581Z,3.89
2019-02-14T21:16:11.317Z,3.80
2019-02-14T21:20:19.135Z,3.86
2019-02-14T21:24:26.926Z,4.01
2019-02-14T21:28:34.668Z,3.79
2019-02-14T21:32:42.883Z,3.98
2019-02-14T21:36:51.533Z,3.92
2019-02-14T21:40:59.515Z,3.90
2019-02-14T21:45:08.919Z,3.78
2019-02-14T21:49:16.635Z,3.63
2019-02-14T21:53:24.447Z,3.62
2019-02-14T21:57:32.178Z,3.53
2019-02-14T22:01:39.992Z,3.51
2019-02-14T22:05:47.680Z,3.53
2019-02-14T22:09:55.286Z,3.57
2019-02-14T22:14:03.462Z,3.60
2019-02-14T22:18:12.723Z,3.53
2019-02-14T22:22:20.374Z,3.54
2019-02-14T22:26:29.080Z,3.53
2019-02-14T22:30:36.803Z,3.49
2019-02-14T22:34:44.608Z,3.41
2019-02-14T22:38:52.851Z,3.41
2019-02-14T22:43:00.742Z,3.38
2019-02-14T22:47:09.003Z,3.36
2019-02-14T22:51:16.766Z,3.32
2019-02-14T22:55:24.486Z,3.38
2019-02-14T22:59:32.297Z,3.35
2019-02-14T23:03:39.990Z,3.33
2019-02-14T23:07:47.613Z,3.37
2019-02-14T23:11:55.858Z,3.34
2019-02-14T23:16:03.931Z,3.32
2019-02-14T23:20:11.729Z,3.22
2019-02-14T23:24:19.691Z,3.17
2019-02-14T23:28:27.682Z,3.16
2019-02-14T23:32:36.604Z,3.14
2019-02-14T23:36:44.857Z,3.14
2019-02-14T23:40:52.733Z,3.17
2019-02-14T23:45:00.541Z,3.20
2019-02-14T23:49:08.777Z,3.19
2019-02-14T23:53:16.399Z,3.17
2019-02-14T23:57:24.376Z,3.14
